sensor_id;sensor_type;location;lat;lon;timestamp;P1;durP1;ratioP1;P2;durP2;ratioP2
5121;SDS011;2563;52.242;7.956;2023-03-08T00:01:14;7.30;;;2.90;;
5121;SDS011;2563;52.242;7.956;2023-03-08T00:03:41;6.80;;;2.80;;
5121;SDS011;2563;52.242;7.956;2023-03-08T00:06:07;13.10;;;3.40;;
5121;SDS011;2563;52.242;7.956;2023-03-08T00:08:35;5.33;;;2.10;;
5121;SDS011;2563;52.242;7.956;2023-03-08T00:11:03;8.80;;;3.63;;
5121;SDS011;2563;52.242;7.956;2023-03-08T00:13:30;6.93;;;3.07;;
5121;SDS011;2563;52.242;7.956;2023-03-08T00:15:59;7.40;;;2.40;;
5121;SDS011;2563;52.242;7.956;2023-03-08T00:18:25;11.93;;;2.70;;
5121;SDS011;2563;52.242;7.956;2023-03-08T00:21:05;5.10;;;2.20;;
5121;SDS011;2563;52.242;7.956;2023-03-08T00:23:35;7.30;;;2.90;;
5121;SDS011;2563;52.242;7.956;2023-03-08T00:26:00;7.00;;;2.80;;
5121;SDS011;2563;52.242;7.956;2023-03-08T00:28:26;8.67;;;2.90;;
5121;SDS011;2563;52.242;7.956;2023-03-08T00:31:02;5.37;;;2.80;;
5121;SDS011;2563;52.242;7.956;2023-03-08T00:33:28;4.80;;;2.03;;
5121;SDS011;2563;52.242;7.956;2023-03-08T00:36:01;5.97;;;2.60;;
5121;SDS011;2563;52.242;7.956;2023-03-08T00:38:29;6.60;;;2.50;;
5121;SDS011;2563;52.242;7.956;2023-03-08T00:40:56;6.40;;;3.27;;
5121;SDS011;2563;52.242;7.956;2023-03-08T00:43:22;4.73;;;2.20;;
5121;SDS011;2563;52.242;7.956;2023-03-08T00:45:47;5.50;;;2.50;;
5121;SDS011;2563;52.242;7.956;2023-03-08T00:48:13;6.73;;;2.40;;
5121;SDS011;2563;52.242;7.956;2023-03-08T00:50:38;7.50;;;2.33;;
5121;SDS011;2563;52.242;7.956;2023-03-08T00:53:03;6.60;;;3.00;;
5121;SDS011;2563;52.242;7.956;2023-03-08T00:55:29;5.80;;;2.67;;
5121;SDS011;2563;52.242;7.956;2023-03-08T00:57:54;7.53;;;2.40;;
5121;SDS011;2563;52.242;7.956;2023-03-08T01:00:20;6.60;;;2.80;;
5121;SDS011;2563;52.242;7.956;2023-03-08T01:02:45;6.90;;;2.47;;
5121;SDS011;2563;52.242;7.956;2023-03-08T01:05:11;10.60;;;2.43;;
5121;SDS011;2563;52.242;7.956;2023-03-08T01:07:37;9.03;;;3.00;;
5121;SDS011;2563;52.242;7.956;2023-03-08T01:10:03;8.97;;;3.13;;
5121;SDS011;2563;52.242;7.956;2023-03-08T01:12:30;9.40;;;3.27;;
5121;SDS011;2563;52.242;7.956;2023-03-08T01:14:57;19.23;;;4.33;;
5121;SDS011;2563;52.242;7.956;2023-03-08T01:17:22;8.57;;;3.23;;
5121;SDS011;2563;52.242;7.956;2023-03-08T01:19:47;11.50;;;3.70;;
5121;SDS011;2563;52.242;7.956;2023-03-08T01:22:13;8.33;;;3.83;;
5121;SDS011;2563;52.242;7.956;2023-03-08T01:24:38;14.00;;;4.17;;
5121;SDS011;2563;52.242;7.956;2023-03-08T01:27:07;12.10;;;4.20;;
5121;SDS011;2563;52.242;7.956;2023-03-08T01:29:33;13.23;;;4.03;;
5121;SDS011;2563;52.242;7.956;2023-03-08T01:31:58;8.77;;;4.27;;
5121;SDS011;2563;52.242;7.956;2023-03-08T01:34:23;11.77;;;4.50;;
5121;SDS011;2563;52.242;7.956;2023-03-08T01:36:49;11.73;;;5.03;;
5121;SDS011;2563;52.242;7.956;2023-03-08T01:39:14;12.90;;;4.57;;
5121;SDS011;2563;52.242;7.956;2023-03-08T01:41:39;12.97;;;4.90;;
5121;SDS011;2563;52.242;7.956;2023-03-08T01:44:08;13.30;;;5.40;;
5121;SDS011;2563;52.242;7.956;2023-03-08T01:46:39;13.33;;;4.80;;
5121;SDS011;2563;52.242;7.956;2023-03-08T01:54:41;13.00;;;5.83;;
5121;SDS011;2563;52.242;7.956;2023-03-08T02:02:41;13.10;;;5.80;;
5121;SDS011;2563;52.242;7.956;2023-03-08T02:05:17;13.87;;;5.83;;
5121;SDS011;2563;52.242;7.956;2023-03-08T02:07:43;15.63;;;6.80;;
5121;SDS011;2563;52.242;7.956;2023-03-08T02:10:09;18.17;;;6.70;;
5121;SDS011;2563;52.242;7.956;2023-03-08T02:12:35;21.10;;;6.73;;
5121;SDS011;2563;52.242;7.956;2023-03-08T02:15:02;17.90;;;7.07;;
5121;SDS011;2563;52.242;7.956;2023-03-08T02:17:30;15.33;;;6.37;;
5121;SDS011;2563;52.242;7.956;2023-03-08T02:20:01;15.60;;;6.93;;
5121;SDS011;2563;52.242;7.956;2023-03-08T02:22:30;21.43;;;7.70;;
5121;SDS011;2563;52.242;7.956;2023-03-08T02:24:55;16.60;;;7.57;;
5121;SDS011;2563;52.242;7.956;2023-03-08T02:27:23;19.87;;;7.57;;
5121;SDS011;2563;52.242;7.956;2023-03-08T02:29:51;14.57;;;6.00;;
5121;SDS011;2563;52.242;7.956;2023-03-08T02:32:16;17.73;;;7.57;;
5121;SDS011;2563;52.242;7.956;2023-03-08T02:34:42;16.63;;;7.33;;
5121;SDS011;2563;52.242;7.956;2023-03-08T02:37:08;17.50;;;6.60;;
5121;SDS011;2563;52.242;7.956;2023-03-08T02:39:33;21.60;;;8.80;;
5121;SDS011;2563;52.242;7.956;2023-03-08T02:41:59;18.47;;;7.70;;
5121;SDS011;2563;52.242;7.956;2023-03-08T02:44:24;19.40;;;7.43;;
5121;SDS011;2563;52.242;7.956;2023-03-08T02:46:50;16.40;;;6.57;;
5121;SDS011;2563;52.242;7.956;2023-03-08T02:49:16;19.93;;;7.10;;
5121;SDS011;2563;52.242;7.956;2023-03-08T02:51:41;17.50;;;7.70;;
5121;SDS011;2563;52.242;7.956;2023-03-08T02:54:07;15.30;;;7.27;;
5121;SDS011;2563;52.242;7.956;2023-03-08T02:56:32;16.30;;;6.17;;
5121;SDS011;2563;52.242;7.956;2023-03-08T02:58:58;28.40;;;7.00;;
5121;SDS011;2563;52.242;7.956;2023-03-08T03:01:23;17.50;;;7.33;;
5121;SDS011;2563;52.242;7.956;2023-03-08T03:03:48;17.70;;;7.43;;
5121;SDS011;2563;52.242;7.956;2023-03-08T03:06:15;22.30;;;6.83;;
5121;SDS011;2563;52.242;7.956;2023-03-08T03:08:41;17.50;;;7.10;;
5121;SDS011;2563;52.242;7.956;2023-03-08T03:11:14;19.70;;;7.60;;
5121;SDS011;2563;52.242;7.956;2023-03-08T03:13:42;15.00;;;6.80;;
5121;SDS011;2563;52.242;7.956;2023-03-08T03:16:08;18.33;;;6.50;;
5121;SDS011;2563;52.242;7.956;2023-03-08T03:18:35;18.27;;;7.50;;
5121;SDS011;2563;52.242;7.956;2023-03-08T03:21:07;18.70;;;7.90;;
5121;SDS011;2563;52.242;7.956;2023-03-08T03:23:35;19.10;;;7.63;;
5121;SDS011;2563;52.242;7.956;2023-03-08T03:26:07;17.03;;;7.10;;
5121;SDS011;2563;52.242;7.956;2023-03-08T03:28:45;20.80;;;8.23;;
5121;SDS011;2563;52.242;7.956;2023-03-08T03:31:12;16.50;;;7.20;;
5121;SDS011;2563;52.242;7.956;2023-03-08T03:33:39;20.83;;;7.90;;
5121;SDS011;2563;52.242;7.956;2023-03-08T03:36:05;19.10;;;7.73;;
5121;SDS011;2563;52.242;7.956;2023-03-08T03:38:31;17.77;;;7.17;;
5121;SDS011;2563;52.242;7.956;2023-03-08T03:41:04;19.13;;;7.63;;
5121;SDS011;2563;52.242;7.956;2023-03-08T03:43:32;15.57;;;6.83;;
5121;SDS011;2563;52.242;7.956;2023-03-08T03:45:58;18.70;;;7.27;;
5121;SDS011;2563;52.242;7.956;2023-03-08T03:48:25;16.33;;;6.67;;
5121;SDS011;2563;52.242;7.956;2023-03-08T03:51:01;20.57;;;7.83;;
5121;SDS011;2563;52.242;7.956;2023-03-08T03:53:29;20.07;;;7.97;;
5121;SDS011;2563;52.242;7.956;2023-03-08T03:58:39;19.70;;;7.77;;
5121;SDS011;2563;52.242;7.956;2023-03-08T04:01:06;24.63;;;7.70;;
5121;SDS011;2563;52.242;7.956;2023-03-08T04:03:38;20.60;;;7.60;;
5121;SDS011;2563;52.242;7.956;2023-03-08T04:06:04;19.87;;;7.30;;
5121;SDS011;2563;52.242;7.956;2023-03-08T04:08:41;20.90;;;8.23;;
5121;SDS011;2563;52.242;7.956;2023-03-08T04:11:31;21.90;;;8.30;;
5121;SDS011;2563;52.242;7.956;2023-03-08T04:13:55;18.30;;;7.17;;
5121;SDS011;2563;52.242;7.956;2023-03-08T04:16:22;17.93;;;7.23;;
5121;SDS011;2563;52.242;7.956;2023-03-08T04:18:52;22.53;;;7.63;;
5121;SDS011;2563;52.242;7.956;2023-03-08T04:21:22;19.80;;;7.30;;
5121;SDS011;2563;52.242;7.956;2023-03-08T04:23:47;24.60;;;8.40;;
5121;SDS011;2563;52.242;7.956;2023-03-08T04:26:13;19.40;;;7.20;;
5121;SDS011;2563;52.242;7.956;2023-03-08T04:28:39;21.47;;;7.50;;
5121;SDS011;2563;52.242;7.956;2023-03-08T04:31:16;18.80;;;7.63;;
5121;SDS011;2563;52.242;7.956;2023-03-08T04:33:46;17.30;;;7.13;;
5121;SDS011;2563;52.242;7.956;2023-03-08T04:36:12;17.67;;;7.27;;
5121;SDS011;2563;52.242;7.956;2023-03-08T04:38:39;18.13;;;8.07;;
5121;SDS011;2563;52.242;7.956;2023-03-08T04:41:05;19.30;;;7.50;;
5121;SDS011;2563;52.242;7.956;2023-03-08T04:43:42;20.40;;;8.00;;
5121;SDS011;2563;52.242;7.956;2023-03-08T04:46:12;16.27;;;7.10;;
5121;SDS011;2563;52.242;7.956;2023-03-08T04:48:39;15.27;;;6.60;;
5121;SDS011;2563;52.242;7.956;2023-03-08T04:51:05;18.33;;;8.20;;
5121;SDS011;2563;52.242;7.956;2023-03-08T04:53:31;17.47;;;7.67;;
5121;SDS011;2563;52.242;7.956;2023-03-08T04:55:57;21.23;;;7.40;;
5121;SDS011;2563;52.242;7.956;2023-03-08T04:58:24;23.47;;;7.77;;
5121;SDS011;2563;52.242;7.956;2023-03-08T05:00:50;25.73;;;7.03;;
5121;SDS011;2563;52.242;7.956;2023-03-08T05:03:16;19.13;;;7.63;;
5121;SDS011;2563;52.242;7.956;2023-03-08T05:05:45;22.30;;;8.73;;
5121;SDS011;2563;52.242;7.956;2023-03-08T05:08:11;21.17;;;8.30;;
5121;SDS011;2563;52.242;7.956;2023-03-08T05:10:36;19.20;;;7.33;;
5121;SDS011;2563;52.242;7.956;2023-03-08T05:13:02;17.17;;;7.07;;
5121;SDS011;2563;52.242;7.956;2023-03-08T05:15:27;18.87;;;7.50;;
5121;SDS011;2563;52.242;7.956;2023-03-08T05:17:53;19.33;;;7.10;;
5121;SDS011;2563;52.242;7.956;2023-03-08T05:20:18;21.27;;;8.00;;
5121;SDS011;2563;52.242;7.956;2023-03-08T05:22:43;18.83;;;6.83;;
5121;SDS011;2563;52.242;7.956;2023-03-08T05:25:09;21.20;;;7.77;;
5121;SDS011;2563;52.242;7.956;2023-03-08T05:27:35;24.57;;;8.23;;
5121;SDS011;2563;52.242;7.956;2023-03-08T05:30:00;25.47;;;8.83;;
5121;SDS011;2563;52.242;7.956;2023-03-08T05:32:26;23.40;;;8.73;;
5121;SDS011;2563;52.242;7.956;2023-03-08T05:34:52;21.27;;;8.40;;
5121;SDS011;2563;52.242;7.956;2023-03-08T05:37:17;19.93;;;7.40;;
5121;SDS011;2563;52.242;7.956;2023-03-08T05:39:43;17.73;;;7.77;;
5121;SDS011;2563;52.242;7.956;2023-03-08T05:42:08;21.77;;;8.50;;
5121;SDS011;2563;52.242;7.956;2023-03-08T05:44:36;18.07;;;7.23;;
5121;SDS011;2563;52.242;7.956;2023-03-08T05:47:01;24.07;;;7.50;;
5121;SDS011;2563;52.242;7.956;2023-03-08T05:49:27;24.53;;;8.30;;
5121;SDS011;2563;52.242;7.956;2023-03-08T05:51:52;21.00;;;7.87;;
5121;SDS011;2563;52.242;7.956;2023-03-08T05:54:18;23.07;;;8.60;;
5121;SDS011;2563;52.242;7.956;2023-03-08T05:56:44;22.23;;;8.50;;
5121;SDS011;2563;52.242;7.956;2023-03-08T05:59:09;27.63;;;9.43;;
5121;SDS011;2563;52.242;7.956;2023-03-08T06:01:34;21.10;;;8.83;;
5121;SDS011;2563;52.242;7.956;2023-03-08T06:04:00;19.80;;;8.60;;
5121;SDS011;2563;52.242;7.956;2023-03-08T06:06:25;28.50;;;7.70;;
5121;SDS011;2563;52.242;7.956;2023-03-08T06:08:51;26.57;;;9.37;;
5121;SDS011;2563;52.242;7.956;2023-03-08T06:11:18;24.37;;;9.40;;
5121;SDS011;2563;52.242;7.956;2023-03-08T06:13:44;24.27;;;10.10;;
5121;SDS011;2563;52.242;7.956;2023-03-08T06:16:09;26.93;;;9.10;;
5121;SDS011;2563;52.242;7.956;2023-03-08T06:18:36;27.70;;;10.47;;
5121;SDS011;2563;52.242;7.956;2023-03-08T06:21:07;21.33;;;8.13;;
5121;SDS011;2563;52.242;7.956;2023-03-08T06:23:36;28.20;;;9.83;;
5121;SDS011;2563;52.242;7.956;2023-03-08T06:26:02;23.40;;;9.23;;
5121;SDS011;2563;52.242;7.956;2023-03-08T06:28:29;29.17;;;10.60;;
5121;SDS011;2563;52.242;7.956;2023-03-08T06:30:55;22.33;;;9.23;;
5121;SDS011;2563;52.242;7.956;2023-03-08T06:33:23;26.57;;;9.37;;
5121;SDS011;2563;52.242;7.956;2023-03-08T06:35:54;24.40;;;8.80;;
5121;SDS011;2563;52.242;7.956;2023-03-08T06:38:22;23.87;;;9.47;;
5121;SDS011;2563;52.242;7.956;2023-03-08T06:40:47;30.20;;;9.03;;
5121;SDS011;2563;52.242;7.956;2023-03-08T06:43:12;22.70;;;9.40;;
5121;SDS011;2563;52.242;7.956;2023-03-08T06:45:38;24.40;;;7.93;;
5121;SDS011;2563;52.242;7.956;2023-03-08T06:48:03;40.03;;;14.43;;
5121;SDS011;2563;52.242;7.956;2023-03-08T06:50:29;33.77;;;12.43;;
5121;SDS011;2563;52.242;7.956;2023-03-08T06:52:54;27.20;;;10.20;;
5121;SDS011;2563;52.242;7.956;2023-03-08T06:55:20;26.60;;;9.30;;
5121;SDS011;2563;52.242;7.956;2023-03-08T06:57:46;24.50;;;9.23;;
5121;SDS011;2563;52.242;7.956;2023-03-08T07:00:11;25.17;;;8.00;;
5121;SDS011;2563;52.242;7.956;2023-03-08T07:02:37;27.13;;;9.13;;
5121;SDS011;2563;52.242;7.956;2023-03-08T07:05:03;19.83;;;7.90;;
5121;SDS011;2563;52.242;7.956;2023-03-08T07:07:28;28.90;;;9.30;;
5121;SDS011;2563;52.242;7.956;2023-03-08T07:09:54;23.80;;;8.20;;
5121;SDS011;2563;52.242;7.956;2023-03-08T07:12:19;24.63;;;8.23;;
5121;SDS011;2563;52.242;7.956;2023-03-08T07:14:45;24.13;;;8.07;;
5121;SDS011;2563;52.242;7.956;2023-03-08T07:17:10;24.20;;;9.50;;
5121;SDS011;2563;52.242;7.956;2023-03-08T07:19:35;20.40;;;8.43;;
5121;SDS011;2563;52.242;7.956;2023-03-08T07:22:01;24.60;;;8.60;;
5121;SDS011;2563;52.242;7.956;2023-03-08T07:24:26;21.30;;;8.27;;
5121;SDS011;2563;52.242;7.956;2023-03-08T07:26:51;23.60;;;8.40;;
5121;SDS011;2563;52.242;7.956;2023-03-08T07:29:17;20.30;;;8.23;;
5121;SDS011;2563;52.242;7.956;2023-03-08T07:31:42;61.93;;;21.90;;
5121;SDS011;2563;52.242;7.956;2023-03-08T07:34:07;32.67;;;10.70;;
5121;SDS011;2563;52.242;7.956;2023-03-08T07:36:33;26.30;;;9.40;;
5121;SDS011;2563;52.242;7.956;2023-03-08T07:38:58;29.90;;;12.10;;
5121;SDS011;2563;52.242;7.956;2023-03-08T07:41:23;28.50;;;11.53;;
5121;SDS011;2563;52.242;7.956;2023-03-08T07:43:49;23.50;;;8.37;;
5121;SDS011;2563;52.242;7.956;2023-03-08T07:46:14;26.80;;;8.50;;
5121;SDS011;2563;52.242;7.956;2023-03-08T07:48:39;24.20;;;8.30;;
5121;SDS011;2563;52.242;7.956;2023-03-08T07:51:05;27.40;;;8.60;;
5121;SDS011;2563;52.242;7.956;2023-03-08T07:53:33;28.70;;;10.20;;
5121;SDS011;2563;52.242;7.956;2023-03-08T07:55:59;29.97;;;9.93;;
5121;SDS011;2563;52.242;7.956;2023-03-08T07:58:25;24.53;;;9.90;;
5121;SDS011;2563;52.242;7.956;2023-03-08T08:00:51;29.00;;;11.60;;
5121;SDS011;2563;52.242;7.956;2023-03-08T08:03:16;35.87;;;12.50;;
5121;SDS011;2563;52.242;7.956;2023-03-08T08:05:42;35.67;;;12.03;;
5121;SDS011;2563;52.242;7.956;2023-03-08T08:08:09;32.67;;;11.90;;
5121;SDS011;2563;52.242;7.956;2023-03-08T08:10:37;32.70;;;13.00;;
5121;SDS011;2563;52.242;7.956;2023-03-08T08:13:03;35.60;;;11.53;;
5121;SDS011;2563;52.242;7.956;2023-03-08T08:15:29;35.60;;;12.30;;
5121;SDS011;2563;52.242;7.956;2023-03-08T08:17:54;34.70;;;13.57;;
5121;SDS011;2563;52.242;7.956;2023-03-08T08:20:20;33.20;;;12.17;;
5121;SDS011;2563;52.242;7.956;2023-03-08T08:22:46;34.47;;;13.20;;
5121;SDS011;2563;52.242;7.956;2023-03-08T08:25:11;40.53;;;13.60;;
5121;SDS011;2563;52.242;7.956;2023-03-08T08:27:36;39.90;;;14.27;;
5121;SDS011;2563;52.242;7.956;2023-03-08T08:30:05;41.20;;;14.20;;
5121;SDS011;2563;52.242;7.956;2023-03-08T08:32:32;33.60;;;13.40;;
5121;SDS011;2563;52.242;7.956;2023-03-08T08:34:59;37.53;;;13.17;;
5121;SDS011;2563;52.242;7.956;2023-03-08T08:37:24;35.70;;;13.03;;
5121;SDS011;2563;52.242;7.956;2023-03-08T08:39:49;44.63;;;15.20;;
5121;SDS011;2563;52.242;7.956;2023-03-08T08:42:15;43.90;;;15.50;;
5121;SDS011;2563;52.242;7.956;2023-03-08T08:44:40;40.73;;;14.50;;
5121;SDS011;2563;52.242;7.956;2023-03-08T08:47:06;41.57;;;15.70;;
5121;SDS011;2563;52.242;7.956;2023-03-08T08:49:31;40.00;;;13.33;;
5121;SDS011;2563;52.242;7.956;2023-03-08T08:51:56;28.03;;;11.37;;
5121;SDS011;2563;52.242;7.956;2023-03-08T08:54:22;34.77;;;12.23;;
5121;SDS011;2563;52.242;7.956;2023-03-08T08:56:47;32.87;;;12.50;;
5121;SDS011;2563;52.242;7.956;2023-03-08T08:59:12;33.57;;;12.67;;
5121;SDS011;2563;52.242;7.956;2023-03-08T09:01:40;35.47;;;13.13;;
5121;SDS011;2563;52.242;7.956;2023-03-08T09:04:08;36.57;;;12.30;;
5121;SDS011;2563;52.242;7.956;2023-03-08T09:06:37;40.87;;;12.60;;
5121;SDS011;2563;52.242;7.956;2023-03-08T09:09:03;40.20;;;14.63;;
5121;SDS011;2563;52.242;7.956;2023-03-08T09:11:29;37.53;;;14.37;;
5121;SDS011;2563;52.242;7.956;2023-03-08T09:13:55;54.33;;;15.23;;
5121;SDS011;2563;52.242;7.956;2023-03-08T09:16:25;55.00;;;17.83;;
5121;SDS011;2563;52.242;7.956;2023-03-08T09:18:52;47.10;;;16.43;;
5121;SDS011;2563;52.242;7.956;2023-03-08T09:21:20;50.73;;;16.10;;
5121;SDS011;2563;52.242;7.956;2023-03-08T09:23:45;44.27;;;16.17;;
5121;SDS011;2563;52.242;7.956;2023-03-08T09:26:11;50.00;;;16.30;;
5121;SDS011;2563;52.242;7.956;2023-03-08T09:28:36;50.10;;;15.97;;
5121;SDS011;2563;52.242;7.956;2023-03-08T09:31:06;49.23;;;16.87;;
5121;SDS011;2563;52.242;7.956;2023-03-08T09:33:36;54.80;;;18.20;;
5121;SDS011;2563;52.242;7.956;2023-03-08T09:36:12;52.90;;;17.87;;
5121;SDS011;2563;52.242;7.956;2023-03-08T09:38:38;47.10;;;16.03;;
5121;SDS011;2563;52.242;7.956;2023-03-08T09:46:43;54.47;;;16.43;;
5121;SDS011;2563;52.242;7.956;2023-03-08T09:49:13;49.10;;;16.00;;
5121;SDS011;2563;52.242;7.956;2023-03-08T09:51:44;48.40;;;16.70;;
5121;SDS011;2563;52.242;7.956;2023-03-08T09:54:16;41.10;;;14.90;;
5121;SDS011;2563;52.242;7.956;2023-03-08T09:56:45;63.37;;;16.47;;
5121;SDS011;2563;52.242;7.956;2023-03-08T09:59:29;41.20;;;15.90;;
5121;SDS011;2563;52.242;7.956;2023-03-08T10:16:23;41.37;;;14.07;;
5121;SDS011;2563;52.242;7.956;2023-03-08T10:21:22;40.43;;;15.20;;
5121;SDS011;2563;52.242;7.956;2023-03-08T10:23:54;39.77;;;14.53;;
5121;SDS011;2563;52.242;7.956;2023-03-08T10:26:38;43.97;;;16.00;;
5121;SDS011;2563;52.242;7.956;2023-03-08T10:29:05;51.43;;;15.80;;
5121;SDS011;2563;52.242;7.956;2023-03-08T10:31:31;43.93;;;15.57;;
5121;SDS011;2563;52.242;7.956;2023-03-08T10:34:01;41.03;;;13.43;;
5121;SDS011;2563;52.242;7.956;2023-03-08T10:39:16;37.37;;;13.43;;
5121;SDS011;2563;52.242;7.956;2023-03-08T10:41:43;42.53;;;14.77;;
5121;SDS011;2563;52.242;7.956;2023-03-08T10:47:52;37.97;;;14.87;;
5121;SDS011;2563;52.242;7.956;2023-03-08T10:52:28;35.63;;;13.37;;
5121;SDS011;2563;52.242;7.956;2023-03-08T10:57:26;36.23;;;12.30;;
5121;SDS011;2563;52.242;7.956;2023-03-08T10:59:54;36.80;;;14.07;;
5121;SDS011;2563;52.242;7.956;2023-03-08T11:02:23;27.80;;;10.17;;
5121;SDS011;2563;52.242;7.956;2023-03-08T11:04:50;25.20;;;10.27;;
5121;SDS011;2563;52.242;7.956;2023-03-08T11:07:22;32.00;;;11.80;;
5121;SDS011;2563;52.242;7.956;2023-03-08T11:09:48;32.13;;;11.47;;
5121;SDS011;2563;52.242;7.956;2023-03-08T11:12:21;25.87;;;9.93;;
5121;SDS011;2563;52.242;7.956;2023-03-08T11:14:48;28.73;;;9.90;;
5121;SDS011;2563;52.242;7.956;2023-03-08T11:17:22;25.70;;;10.03;;
5121;SDS011;2563;52.242;7.956;2023-03-08T11:22:35;22.60;;;7.77;;
5121;SDS011;2563;52.242;7.956;2023-03-08T11:38:31;19.60;;;8.37;;
5121;SDS011;2563;52.242;7.956;2023-03-08T11:57:46;16.70;;;7.53;;
5121;SDS011;2563;52.242;7.956;2023-03-08T12:00:23;20.60;;;8.13;;
5121;SDS011;2563;52.242;7.956;2023-03-08T12:02:53;18.43;;;7.53;;
5121;SDS011;2563;52.242;7.956;2023-03-08T12:08:02;20.17;;;7.73;;
5121;SDS011;2563;52.242;7.956;2023-03-08T12:10:41;18.10;;;6.47;;
5121;SDS011;2563;52.242;7.956;2023-03-08T12:15:56;15.27;;;6.00;;
5121;SDS011;2563;52.242;7.956;2023-03-08T12:26:42;20.37;;;6.10;;
5121;SDS011;2563;52.242;7.956;2023-03-08T12:29:16;10.33;;;4.87;;
5121;SDS011;2563;52.242;7.956;2023-03-08T12:31:46;55.53;;;8.90;;
5121;SDS011;2563;52.242;7.956;2023-03-08T12:34:21;13.13;;;5.70;;
5121;SDS011;2563;52.242;7.956;2023-03-08T12:36:59;13.10;;;5.57;;
5121;SDS011;2563;52.242;7.956;2023-03-08T12:39:27;14.37;;;4.93;;
5121;SDS011;2563;52.242;7.956;2023-03-08T12:45:04;16.03;;;6.13;;
5121;SDS011;2563;52.242;7.956;2023-03-08T12:47:55;9.90;;;4.70;;
5121;SDS011;2563;52.242;7.956;2023-03-08T12:51:16;25.27;;;5.20;;
5121;SDS011;2563;52.242;7.956;2023-03-08T12:53:28;9.00;;;3.70;;
5121;SDS011;2563;52.242;7.956;2023-03-08T12:58:45;18.80;;;4.40;;
5121;SDS011;2563;52.242;7.956;2023-03-08T13:01:26;22.30;;;4.80;;
5121;SDS011;2563;52.242;7.956;2023-03-08T13:03:59;9.30;;;3.57;;
5121;SDS011;2563;52.242;7.956;2023-03-08T13:08:55;8.30;;;2.67;;
5121;SDS011;2563;52.242;7.956;2023-03-08T13:11:24;6.60;;;2.90;;
5121;SDS011;2563;52.242;7.956;2023-03-08T13:14:01;7.50;;;3.33;;
5121;SDS011;2563;52.242;7.956;2023-03-08T13:16:34;7.90;;;3.23;;
5121;SDS011;2563;52.242;7.956;2023-03-08T13:21:39;7.63;;;2.73;;
5121;SDS011;2563;52.242;7.956;2023-03-08T13:29:30;9.10;;;3.60;;
5121;SDS011;2563;52.242;7.956;2023-03-08T13:31:57;9.83;;;3.10;;
5121;SDS011;2563;52.242;7.956;2023-03-08T13:36:49;9.63;;;3.27;;
5121;SDS011;2563;52.242;7.956;2023-03-08T13:39:19;6.70;;;3.10;;
5121;SDS011;2563;52.242;7.956;2023-03-08T13:41:45;8.23;;;3.40;;
5121;SDS011;2563;52.242;7.956;2023-03-08T13:44:20;7.90;;;3.03;;
5121;SDS011;2563;52.242;7.956;2023-03-08T13:46:49;11.10;;;3.47;;
5121;SDS011;2563;52.242;7.956;2023-03-08T13:49:19;9.90;;;3.07;;
5121;SDS011;2563;52.242;7.956;2023-03-08T13:51:48;8.83;;;2.70;;
5121;SDS011;2563;52.242;7.956;2023-03-08T13:54:51;7.50;;;2.90;;
5121;SDS011;2563;52.242;7.956;2023-03-08T13:57:20;6.43;;;3.00;;
5121;SDS011;2563;52.242;7.956;2023-03-08T13:59:52;10.47;;;3.00;;
5121;SDS011;2563;52.242;7.956;2023-03-08T14:02:24;10.70;;;3.30;;
5121;SDS011;2563;52.242;7.956;2023-03-08T14:04:54;11.30;;;4.30;;
5121;SDS011;2563;52.242;7.956;2023-03-08T14:07:25;11.50;;;4.63;;
5121;SDS011;2563;52.242;7.956;2023-03-08T14:09:55;7.83;;;3.10;;
5121;SDS011;2563;52.242;7.956;2023-03-08T14:12:22;8.73;;;3.47;;
5121;SDS011;2563;52.242;7.956;2023-03-08T14:14:51;10.50;;;2.47;;
5121;SDS011;2563;52.242;7.956;2023-03-08T14:17:21;9.03;;;2.40;;
5121;SDS011;2563;52.242;7.956;2023-03-08T14:20:13;7.43;;;2.47;;
5121;SDS011;2563;52.242;7.956;2023-03-08T14:22:47;6.90;;;2.73;;
5121;SDS011;2563;52.242;7.956;2023-03-08T14:25:25;12.43;;;2.60;;
5121;SDS011;2563;52.242;7.956;2023-03-08T14:27:53;8.60;;;2.93;;
5121;SDS011;2563;52.242;7.956;2023-03-08T14:35:50;6.53;;;3.30;;
5121;SDS011;2563;52.242;7.956;2023-03-08T14:38:22;7.83;;;2.67;;
5121;SDS011;2563;52.242;7.956;2023-03-08T14:40:50;5.27;;;2.33;;
5121;SDS011;2563;52.242;7.956;2023-03-08T14:43:21;7.17;;;3.30;;
5121;SDS011;2563;52.242;7.956;2023-03-08T14:45:53;9.40;;;4.37;;
5121;SDS011;2563;52.242;7.956;2023-03-08T14:48:32;8.40;;;3.07;;
5121;SDS011;2563;52.242;7.956;2023-03-08T14:53:59;5.60;;;2.50;;
5121;SDS011;2563;52.242;7.956;2023-03-08T14:56:27;7.60;;;3.00;;
5121;SDS011;2563;52.242;7.956;2023-03-08T14:58:54;9.50;;;4.40;;
5121;SDS011;2563;52.242;7.956;2023-03-08T15:01:23;10.20;;;5.30;;
5121;SDS011;2563;52.242;7.956;2023-03-08T15:03:50;15.57;;;7.80;;
5121;SDS011;2563;52.242;7.956;2023-03-08T15:06:18;25.63;;;11.90;;
5121;SDS011;2563;52.242;7.956;2023-03-08T15:08:45;17.70;;;8.23;;
5121;SDS011;2563;52.242;7.956;2023-03-08T15:11:12;8.90;;;4.77;;
5121;SDS011;2563;52.242;7.956;2023-03-08T15:13:38;9.90;;;4.17;;
5121;SDS011;2563;52.242;7.956;2023-03-08T15:16:05;7.17;;;3.60;;
5121;SDS011;2563;52.242;7.956;2023-03-08T15:18:31;7.23;;;2.90;;
5121;SDS011;2563;52.242;7.956;2023-03-08T15:20:56;8.20;;;3.30;;
5121;SDS011;2563;52.242;7.956;2023-03-08T15:23:23;8.17;;;3.60;;
5121;SDS011;2563;52.242;7.956;2023-03-08T15:25:52;7.97;;;3.30;;
5121;SDS011;2563;52.242;7.956;2023-03-08T15:28:18;8.83;;;3.17;;
5121;SDS011;2563;52.242;7.956;2023-03-08T15:30:45;6.70;;;3.07;;
5121;SDS011;2563;52.242;7.956;2023-03-08T15:33:11;9.90;;;3.50;;
5121;SDS011;2563;52.242;7.956;2023-03-08T15:35:37;5.23;;;2.30;;
5121;SDS011;2563;52.242;7.956;2023-03-08T15:38:03;7.10;;;3.20;;
5121;SDS011;2563;52.242;7.956;2023-03-08T15:40:29;8.30;;;3.17;;
5121;SDS011;2563;52.242;7.956;2023-03-08T15:42:56;6.70;;;3.37;;
5121;SDS011;2563;52.242;7.956;2023-03-08T15:45:22;6.90;;;3.60;;
5121;SDS011;2563;52.242;7.956;2023-03-08T15:47:54;10.00;;;4.47;;
5121;SDS011;2563;52.242;7.956;2023-03-08T15:50:39;8.97;;;3.70;;
5121;SDS011;2563;52.242;7.956;2023-03-08T15:53:04;5.80;;;2.63;;
5121;SDS011;2563;52.242;7.956;2023-03-08T15:55:30;7.80;;;3.00;;
5121;SDS011;2563;52.242;7.956;2023-03-08T15:57:56;6.70;;;3.10;;
5121;SDS011;2563;52.242;7.956;2023-03-08T16:00:22;7.23;;;2.80;;
5121;SDS011;2563;52.242;7.956;2023-03-08T16:02:50;7.07;;;2.60;;
5121;SDS011;2563;52.242;7.956;2023-03-08T16:05:17;6.67;;;2.87;;
5121;SDS011;2563;52.242;7.956;2023-03-08T16:07:46;11.33;;;5.50;;
5121;SDS011;2563;52.242;7.956;2023-03-08T16:10:16;26.77;;;14.63;;
5121;SDS011;2563;52.242;7.956;2023-03-08T16:12:41;8.60;;;4.10;;
5121;SDS011;2563;52.242;7.956;2023-03-08T16:15:07;10.90;;;4.70;;
5121;SDS011;2563;52.242;7.956;2023-03-08T16:17:33;10.93;;;4.67;;
5121;SDS011;2563;52.242;7.956;2023-03-08T16:19:59;7.50;;;4.00;;
5121;SDS011;2563;52.242;7.956;2023-03-08T16:22:24;8.70;;;4.73;;
5121;SDS011;2563;52.242;7.956;2023-03-08T16:24:50;7.77;;;4.00;;
5121;SDS011;2563;52.242;7.956;2023-03-08T16:27:15;6.87;;;3.50;;
5121;SDS011;2563;52.242;7.956;2023-03-08T16:29:41;9.70;;;4.47;;
5121;SDS011;2563;52.242;7.956;2023-03-08T16:32:06;7.90;;;3.50;;
5121;SDS011;2563;52.242;7.956;2023-03-08T16:34:32;9.97;;;3.93;;
5121;SDS011;2563;52.242;7.956;2023-03-08T16:36:57;8.03;;;4.50;;
5121;SDS011;2563;52.242;7.956;2023-03-08T16:39:23;11.80;;;5.13;;
5121;SDS011;2563;52.242;7.956;2023-03-08T16:41:49;13.43;;;4.80;;
5121;SDS011;2563;52.242;7.956;2023-03-08T16:44:22;12.67;;;6.73;;
5121;SDS011;2563;52.242;7.956;2023-03-08T16:46:50;17.37;;;9.60;;
5121;SDS011;2563;52.242;7.956;2023-03-08T16:49:16;10.07;;;6.27;;
5121;SDS011;2563;52.242;7.956;2023-03-08T16:51:42;11.73;;;4.90;;
5121;SDS011;2563;52.242;7.956;2023-03-08T16:54:08;11.50;;;4.77;;
5121;SDS011;2563;52.242;7.956;2023-03-08T16:56:35;8.53;;;4.20;;
5121;SDS011;2563;52.242;7.956;2023-03-08T16:59:01;12.10;;;5.20;;
5121;SDS011;2563;52.242;7.956;2023-03-08T17:01:29;14.40;;;4.70;;
5121;SDS011;2563;52.242;7.956;2023-03-08T17:03:55;15.47;;;7.07;;
5121;SDS011;2563;52.242;7.956;2023-03-08T17:06:22;11.47;;;4.80;;
5121;SDS011;2563;52.242;7.956;2023-03-08T17:08:49;10.20;;;3.83;;